Time;durP1;ratioP1;P1;durP2;ratioP2;P2;SDS_P1;SDS_P2;PMS_P1;PMS_P2;Temp;Humidity;BMP_temperature;BMP_pressure;BME280_temperature;BME280_humidity;BME280_pressure;Samples;Min_cycle;Max_cycle;Signal;HPM_P1;HPM_P2
2022/10/02 00:01:58;;;;;;;6.55;4.85;;;;;;;;;;1753182;82;21020;-65
2022/10/02 00:04:26;;;;;;;7.55;4.70;;;;;;;;;;1734232;82;21578;-65
2022/10/02 00:06:52;;;;;;;7.47;4.53;;;;;;;;;;1712429;83;20992;-65
2022/10/02 00:09:20;;;;;;;5.67;4.50;;;;;;;;;;1726765;82;21063;-65
2022/10/02 00:11:47;;;;;;;6.37;4.53;;;;;;;;;;1748425;81;21032;-66
2022/10/02 00:14:17;;;;;;;5.40;4.40;;;;;;;;;;1731145;82;20985;-65
2022/10/02 00:16:44;;;;;;;6.83;4.75;;;;;;;;;;1708947;82;20997;-65
2022/10/02 00:19:11;;;;;;;6.33;4.05;;;;;;;;;;1704454;82;21572;-65
2022/10/02 00:21:56;;;;;;;6.85;4.25;;;;;;;;;;1717769;81;20990;-66
2022/10/02 00:24:27;;;;;;;6.17;4.40;;;;;;;;;;1731369;82;21030;-65
2022/10/02 00:26:57;;;;;;;6.55;4.40;;;;;;;;;;1697543;82;21027;-65
2022/10/02 00:29:26;;;;;;;6.15;4.00;;;;;;;;;;1745304;82;21099;-65
2022/10/02 00:32:12;;;;;;;5.65;3.90;;;;;;;;;;1709528;82;21001;-65
2022/10/02 00:34:47;;;;;;;6.15;3.50;;;;;;;;;;1717864;82;21039;-65
2022/10/02 00:37:33;;;;;;;6.85;4.08;;;;;;;;;;1689792;84;21056;-65
2022/10/02 00:40:01;;;;;;;5.30;4.10;;;;;;;;;;1731838;80;21087;-63
2022/10/02 00:42:38;;;;;;;5.50;4.25;;;;;;;;;;1734787;82;21593;-64
2022/10/02 00:45:15;;;;;;;7.92;4.35;;;;;;;;;;1719865;82;21009;-64
2022/10/02 00:47:49;;;;;;;6.72;3.98;;;;;;;;;;1718693;81;21577;-64
2022/10/02 00:50:19;;;;;;;6.55;3.98;;;;;;;;;;1716670;82;21074;-64
2022/10/02 00:52:50;;;;;;;6.53;3.92;;;;;;;;;;1702847;83;21600;-64
2022/10/02 00:55:21;;;;;;;5.90;4.55;;;;;;;;;;1695430;82;21620;-64
2022/10/02 00:57:55;;;;;;;5.72;3.98;;;;;;;;;;1695736;83;20962;-65
2022/10/02 01:06:06;;;;;;;6.33;4.20;;;;;;;;;;1769606;80;21032;-65
2022/10/02 01:08:34;;;;;;;5.37;4.28;;;;;;;;;;1761672;80;21063;-65
2022/10/02 01:11:01;;;;;;;6.47;4.00;;;;;;;;;;1757797;80;21043;-65
2022/10/02 01:13:30;;;;;;;5.50;4.47;;;;;;;;;;1758862;80;21027;-65
2022/10/02 01:15:58;;;;;;;6.12;4.10;;;;;;;;;;1765157;80;21040;-65
2022/10/02 01:19:43;;;;;;;5.67;3.83;;;;;;;;;;1808789;78;23266;-65
2022/10/02 01:22:10;;;;;;;4.53;3.77;;;;;;;;;;1759241;80;21087;-66
2022/10/02 01:24:44;;;;;;;7.58;3.80;;;;;;;;;;1755743;80;21004;-65
2022/10/02 01:27:10;;;;;;;5.22;3.98;;;;;;;;;;1770958;80;21072;-66
2022/10/02 01:29:37;;;;;;;4.65;3.58;;;;;;;;;;1778420;80;20998;-66
2022/10/02 01:32:03;;;;;;;4.87;4.00;;;;;;;;;;1760738;79;20990;-66
2022/10/02 01:34:32;;;;;;;7.25;4.20;;;;;;;;;;1757502;80;21053;-66
2022/10/02 01:36:58;;;;;;;7.72;3.60;;;;;;;;;;1762505;80;22034;-66
2022/10/02 01:39:25;;;;;;;5.00;3.52;;;;;;;;;;1790718;80;21039;-66
2022/10/02 01:41:54;;;;;;;5.47;3.77;;;;;;;;;;1773293;80;21017;-66
2022/10/02 01:44:19;;;;;;;5.87;3.50;;;;;;;;;;1781611;80;21082;-66
2022/10/02 01:46:47;;;;;;;6.78;3.90;;;;;;;;;;1767732;80;21009;-66
2022/10/02 01:49:22;;;;;;;7.80;3.85;;;;;;;;;;1771988;80;21028;-66
2022/10/02 01:51:49;;;;;;;5.55;3.20;;;;;;;;;;1774306;80;21036;-66
2022/10/02 01:54:34;;;;;;;4.53;3.33;;;;;;;;;;1758561;80;21047;-66
2022/10/02 01:57:04;;;;;;;5.30;3.55;;;;;;;;;;1731390;83;21606;-64
2022/10/02 01:59:48;;;;;;;4.50;3.75;;;;;;;;;;1787888;80;21016;-64
2022/10/02 02:02:34;;;;;;;4.35;3.25;;;;;;;;;;1766448;80;21028;-64
2022/10/02 02:05:02;;;;;;;4.85;3.17;;;;;;;;;;1756803;80;21053;-64
2022/10/02 02:07:33;;;;;;;6.28;3.02;;;;;;;;;;1680408;82;21037;-64
2022/10/02 02:10:07;;;;;;;4.20;3.10;;;;;;;;;;1747230;81;21076;-64
2022/10/02 02:12:36;;;;;;;5.12;3.33;;;;;;;;;;1748155;82;21615;-65
2022/10/02 02:15:10;;;;;;;3.95;2.87;;;;;;;;;;1703982;83;21566;-66
2022/10/02 02:17:38;;;;;;;4.67;3.10;;;;;;;;;;1688939;84;21076;-66
2022/10/02 02:20:05;;;;;;;3.10;2.67;;;;;;;;;;1711567;83;21055;-64
2022/10/02 02:22:38;;;;;;;3.25;2.80;;;;;;;;;;1711333;83;20999;-64
2022/10/02 02:25:10;;;;;;;4.35;2.70;;;;;;;;;;1693123;84;21114;-64
2022/10/02 02:27:43;;;;;;;3.55;3.00;;;;;;;;;;1693765;83;21051;-64
2022/10/02 02:30:15;;;;;;;5.45;2.58;;;;;;;;;;1718334;83;21168;-64
2022/10/02 02:32:40;;;;;;;3.70;2.67;;;;;;;;;;1721548;83;21016;-64
2022/10/02 02:35:09;;;;;;;4.37;2.90;;;;;;;;;;1722694;82;21059;-66
2022/10/02 02:37:35;;;;;;;4.00;2.75;;;;;;;;;;1719899;83;21011;-65
2022/10/02 02:40:06;;;;;;;3.67;2.75;;;;;;;;;;1718726;83;21019;-65
2022/10/02 02:42:32;;;;;;;4.97;3.10;;;;;;;;;;1709771;83;21104;-65
2022/10/02 02:45:03;;;;;;;4.42;2.80;;;;;;;;;;1694273;83;21100;-66
2022/10/02 02:47:31;;;;;;;5.72;3.27;;;;;;;;;;1672042;85;21079;-65
2022/10/02 02:49:59;;;;;;;4.78;3.17;;;;;;;;;;1723496;83;21019;-65
2022/10/02 02:52:26;;;;;;;5.67;3.33;;;;;;;;;;1713863;83;21027;-67
2022/10/02 02:54:55;;;;;;;5.22;3.10;;;;;;;;;;1715254;83;21472;-65
2022/10/02 02:57:23;;;;;;;4.95;3.08;;;;;;;;;;1689884;83;21051;-65
2022/10/02 02:59:49;;;;;;;4.58;3.27;;;;;;;;;;1722559;83;21044;-66
2022/10/02 03:02:15;;;;;;;5.20;3.55;;;;;;;;;;1723552;83;21016;-65
2022/10/02 03:04:42;;;;;;;4.25;3.10;;;;;;;;;;1703462;83;21074;-65
2022/10/02 03:07:09;;;;;;;4.58;2.92;;;;;;;;;;1694355;83;21019;-65
2022/10/02 03:09:36;;;;;;;4.10;2.85;;;;;;;;;;1719774;83;21057;-65
2022/10/02 03:12:21;;;;;;;7.17;3.20;;;;;;;;;;1712613;83;20988;-65
2022/10/02 03:14:53;;;;;;;3.58;2.52;;;;;;;;;;1695801;83;21062;-66
2022/10/02 03:17:27;;;;;;;6.10;2.87;;;;;;;;;;1694626;84;21524;-65
2022/10/02 03:19:57;;;;;;;6.40;2.90;;;;;;;;;;1703747;83;21091;-65
2022/10/02 03:22:29;;;;;;;5.17;3.17;;;;;;;;;;1722066;83;21092;-65
2022/10/02 03:25:00;;;;;;;5.28;2.90;;;;;;;;;;1720556;83;21051;-64
2022/10/02 03:27:36;;;;;;;3.98;2.87;;;;;;;;;;1671190;84;21091;-66
2022/10/02 03:30:07;;;;;;;4.58;2.70;;;;;;;;;;1723416;83;21090;-65
2022/10/02 03:32:35;;;;;;;4.10;2.67;;;;;;;;;;1703099;84;21043;-65
2022/10/02 03:35:01;;;;;;;5.78;2.95;;;;;;;;;;1718058;82;21015;-65
2022/10/02 03:37:28;;;;;;;6.12;2.92;;;;;;;;;;1709849;83;21111;-64
2022/10/02 03:39:58;;;;;;;4.92;2.80;;;;;;;;;;1718944;83;21111;-64
2022/10/02 03:42:25;;;;;;;4.97;2.58;;;;;;;;;;1679004;83;21610;-65
2022/10/02 03:44:51;;;;;;;4.40;2.83;;;;;;;;;;1716350;83;21037;-64
2022/10/02 03:47:17;;;;;;;6.00;2.85;;;;;;;;;;1708976;83;21048;-64
2022/10/02 03:49:43;;;;;;;5.95;2.80;;;;;;;;;;1707777;83;21551;-64
2022/10/02 03:52:14;;;;;;;4.28;3.08;;;;;;;;;;1718846;83;21574;-64
2022/10/02 03:54:40;;;;;;;6.33;2.92;;;;;;;;;;1717457;83;21552;-64
2022/10/02 03:57:07;;;;;;;4.92;2.95;;;;;;;;;;1725442;83;21114;-65
2022/10/02 03:59:47;;;;;;;5.05;2.80;;;;;;;;;;1687281;84;21052;-65
2022/10/02 04:02:24;;;;;;;4.10;3.40;;;;;;;;;;1711681;82;21039;-65
2022/10/02 04:04:52;;;;;;;4.53;3.40;;;;;;;;;;1692626;84;21560;-65
2022/10/02 04:07:21;;;;;;;5.00;3.40;;;;;;;;;;1693941;83;22154;-65
2022/10/02 04:09:49;;;;;;;3.95;2.90;;;;;;;;;;1694436;83;21046;-66
2022/10/02 04:12:18;;;;;;;5.28;3.33;;;;;;;;;;1699296;83;21031;-65
2022/10/02 04:14:46;;;;;;;5.25;3.17;;;;;;;;;;1670995;84;21063;-65
2022/10/02 04:17:19;;;;;;;4.92;3.70;;;;;;;;;;1703382;83;21116;-65
2022/10/02 04:19:47;;;;;;;5.50;3.27;;;;;;;;;;1681409;84;21049;-65
2022/10/02 04:22:33;;;;;;;4.42;3.40;;;;;;;;;;1689380;84;21044;-65
2022/10/02 04:25:03;;;;;;;4.62;3.05;;;;;;;;;;1701011;84;21548;-65
2022/10/02 04:27:34;;;;;;;6.33;4.17;;;;;;;;;;1726871;82;21525;-66
2022/10/02 04:30:02;;;;;;;5.28;3.17;;;;;;;;;;1724057;82;21076;-65
2022/10/02 04:32:29;;;;;;;4.70;3.67;;;;;;;;;;1722743;82;21021;-66
2022/10/02 04:34:56;;;;;;;7.40;3.67;;;;;;;;;;1722455;82;21052;-66
2022/10/02 04:37:24;;;;;;;6.08;4.00;;;;;;;;;;1739264;82;21033;-66
2022/10/02 04:40:02;;;;;;;4.83;3.83;;;;;;;;;;1664201;82;21108;-65
2022/10/02 04:42:30;;;;;;;6.17;3.85;;;;;;;;;;1747105;82;21071;-65
2022/10/02 04:45:01;;;;;;;4.97;3.55;;;;;;;;;;1702511;84;21120;-65
2022/10/02 04:47:29;;;;;;;8.15;4.40;;;;;;;;;;1665466;86;21582;-65
2022/10/02 04:50:01;;;;;;;6.75;5.00;;;;;;;;;;1650371;84;21127;-65
2022/10/02 04:52:38;;;;;;;7.55;4.62;;;;;;;;;;1676178;84;21031;-66
2022/10/02 04:55:09;;;;;;;10.88;4.65;;;;;;;;;;1699181;84;21064;-65
2022/10/02 04:57:55;;;;;;;5.87;4.65;;;;;;;;;;1675498;84;21048;-65
2022/10/02 05:00:22;;;;;;;6.10;4.33;;;;;;;;;;1672107;84;21065;-65
2022/10/02 05:03:07;;;;;;;5.90;4.70;;;;;;;;;;1738452;82;21010;-65
2022/10/02 05:05:44;;;;;;;6.10;4.40;;;;;;;;;;1731913;82;21045;-66
2022/10/02 05:08:18;;;;;;;7.85;4.47;;;;;;;;;;1690808;84;21508;-65
2022/10/02 05:11:03;;;;;;;5.80;4.60;;;;;;;;;;1696041;84;21083;-66
2022/10/02 05:13:31;;;;;;;6.22;4.78;;;;;;;;;;1689859;84;21021;-66
2022/10/02 05:16:11;;;;;;;7.08;4.92;;;;;;;;;;1736724;82;21480;-66
2022/10/02 05:18:46;;;;;;;6.33;4.25;;;;;;;;;;1740588;81;21113;-66
2022/10/02 05:21:23;;;;;;;8.13;4.65;;;;;;;;;;1748565;82;21496;-66
2022/10/02 05:23:55;;;;;;;7.53;4.55;;;;;;;;;;1751588;81;21091;-66
2022/10/02 05:26:32;;;;;;;7.25;4.83;;;;;;;;;;1736353;82;21054;-64
2022/10/02 05:29:00;;;;;;;9.15;5.08;;;;;;;;;;1751835;81;21627;-66
2022/10/02 05:31:45;;;;;;;10.78;4.95;;;;;;;;;;1724652;82;21095;-65
2022/10/02 05:34:13;;;;;;;7.95;4.55;;;;;;;;;;1732255;81;21060;-64
2022/10/02 05:36:42;;;;;;;8.80;4.85;;;;;;;;;;1748778;80;21036;-64
2022/10/02 05:39:10;;;;;;;6.58;4.50;;;;;;;;;;1750306;81;21013;-65
2022/10/02 05:41:39;;;;;;;8.98;5.15;;;;;;;;;;1752515;81;21040;-65
2022/10/02 05:44:06;;;;;;;7.50;4.83;;;;;;;;;;1742683;81;21025;-65
2022/10/02 05:46:35;;;;;;;8.73;5.03;;;;;;;;;;1744779;82;21060;-65
2022/10/02 05:49:19;;;;;;;8.78;4.80;;;;;;;;;;1723283;82;21509;-65
2022/10/02 05:51:58;;;;;;;7.78;4.92;;;;;;;;;;1743932;82;21543;-66
2022/10/02 05:54:26;;;;;;;7.37;4.40;;;;;;;;;;1746200;82;21023;-65
2022/10/02 05:56:54;;;;;;;6.53;4.58;;;;;;;;;;1750134;81;21040;-66
2022/10/02 05:59:40;;;;;;;7.58;4.47;;;;;;;;;;1741038;82;21038;-65
2022/10/02 06:02:20;;;;;;;7.05;4.28;;;;;;;;;;1751783;82;21762;-64
2022/10/02 06:04:48;;;;;;;9.08;4.65;;;;;;;;;;1743993;82;21100;-66
2022/10/02 06:07:14;;;;;;;5.83;4.33;;;;;;;;;;1729919;82;21048;-68
2022/10/02 06:09:50;;;;;;;5.70;4.12;;;;;;;;;;1719817;82;21095;-67
2022/10/02 06:12:19;;;;;;;6.92;4.85;;;;;;;;;;1742749;82;21056;-67
2022/10/02 06:14:46;;;;;;;6.47;4.50;;;;;;;;;;1751444;81;21025;-68
2022/10/02 06:17:14;;;;;;;5.40;4.33;;;;;;;;;;1745556;80;21453;-67
2022/10/02 06:19:43;;;;;;;6.10;4.40;;;;;;;;;;1700814;83;21088;-67
2022/10/02 06:22:16;;;;;;;6.12;4.53;;;;;;;;;;1677238;84;21097;-68
2022/10/02 06:24:56;;;;;;;6.42;4.70;;;;;;;;;;1728138;82;21045;-64
2022/10/02 06:27:24;;;;;;;7.05;4.75;;;;;;;;;;1711736;82;21044;-64
2022/10/02 06:29:55;;;;;;;6.67;5.03;;;;;;;;;;1734015;82;21013;-64
2022/10/02 06:32:29;;;;;;;6.33;5.00;;;;;;;;;;1715584;82;21013;-64
2022/10/02 06:34:55;;;;;;;7.53;5.50;;;;;;;;;;1730961;82;21037;-64
2022/10/02 06:37:24;;;;;;;5.80;4.67;;;;;;;;;;1737533;82;22147;-64
2022/10/02 06:40:04;;;;;;;7.35;5.17;;;;;;;;;;1733509;82;21524;-64
2022/10/02 06:42:38;;;;;;;6.47;5.28;;;;;;;;;;1723660;82;21501;-63
2022/10/02 06:45:07;;;;;;;7.60;5.25;;;;;;;;;;1737181;82;21112;-64
2022/10/02 06:47:36;;;;;;;7.65;5.00;;;;;;;;;;1737637;82;21044;-64
2022/10/02 06:50:20;;;;;;;7.03;4.97;;;;;;;;;;1726455;82;21053;-64
2022/10/02 06:52:50;;;;;;;6.42;4.80;;;;;;;;;;1731560;82;22442;-63
2022/10/02 06:55:35;;;;;;;7.83;5.62;;;;;;;;;;1708294;82;21535;-63
2022/10/02 06:58:20;;;;;;;7.55;5.60;;;;;;;;;;1703982;84;21013;-64
2022/10/02 07:00:54;;;;;;;9.03;5.28;;;;;;;;;;1736524;82;21041;-65
2022/10/02 07:03:41;;;;;;;7.62;5.45;;;;;;;;;;1723917;82;21056;-64
2022/10/02 07:06:13;;;;;;;8.43;5.62;;;;;;;;;;1668230;84;21084;-64
2022/10/02 07:08:56;;;;;;;9.63;5.83;;;;;;;;;;1656000;86;21100;-64
2022/10/02 07:11:41;;;;;;;6.87;4.85;;;;;;;;;;1656388;85;21045;-65
2022/10/02 07:14:19;;;;;;;8.03;5.90;;;;;;;;;;1654913;84;21133;-65
2022/10/02 07:17:04;;;;;;;10.90;7.58;;;;;;;;;;1652334;82;21025;-65
2022/10/02 07:19:39;;;;;;;8.85;4.92;;;;;;;;;;1725201;81;20997;-64
2022/10/02 07:22:07;;;;;;;6.72;4.53;;;;;;;;;;1738591;82;21079;-66
2022/10/02 07:24:36;;;;;;;6.72;4.62;;;;;;;;;;1721232;83;21048;-65
2022/10/02 07:27:22;;;;;;;6.83;4.65;;;;;;;;;;1735598;82;21060;-65
2022/10/02 07:29:50;;;;;;;7.83;5.47;;;;;;;;;;1752685;82;21068;-65
2022/10/02 07:32:18;;;;;;;11.53;6.20;;;;;;;;;;1751822;80;21468;-65
2022/10/02 07:34:57;;;;;;;8.75;6.00;;;;;;;;;;1738606;81;21047;-65
2022/10/02 07:37:25;;;;;;;10.75;6.90;;;;;;;;;;1645233;83;21071;-66
2022/10/02 07:40:10;;;;;;;10.00;6.33;;;;;;;;;;1738853;82;21013;-66
2022/10/02 07:42:56;;;;;;;9.05;6.60;;;;;;;;;;1723880;82;21114;-65
2022/10/02 07:45:24;;;;;;;9.30;6.40;;;;;;;;;;1744945;82;21527;-65
2022/10/02 07:48:04;;;;;;;9.78;6.60;;;;;;;;;;1752474;82;21073;-65
2022/10/02 07:50:51;;;;;;;12.03;7.22;;;;;;;;;;1753365;82;21060;-65
2022/10/02 07:53:25;;;;;;;9.65;6.75;;;;;;;;;;1752744;82;21076;-64
2022/10/02 07:55:51;;;;;;;9.70;6.30;;;;;;;;;;1750972;81;21004;-64
2022/10/02 07:58:20;;;;;;;11.03;7.22;;;;;;;;;;1750836;82;21064;-64
2022/10/02 08:00:48;;;;;;;9.18;6.65;;;;;;;;;;1722798;83;21036;-64
2022/10/02 08:03:15;;;;;;;8.43;6.22;;;;;;;;;;1723527;83;21095;-66
2022/10/02 08:05:48;;;;;;;9.48;6.87;;;;;;;;;;1727106;82;21135;-65
2022/10/02 08:08:32;;;;;;;8.98;6.37;;;;;;;;;;1751921;82;21218;-66
2022/10/02 08:11:00;;;;;;;9.40;6.33;;;;;;;;;;1753244;82;21064;-65
2022/10/02 08:13:28;;;;;;;9.33;6.10;;;;;;;;;;1753588;81;21060;-65
2022/10/02 08:15:56;;;;;;;9.40;6.58;;;;;;;;;;1752671;82;20997;-65
2022/10/02 08:18:36;;;;;;;8.65;6.15;;;;;;;;;;1724538;81;21000;-65
2022/10/02 08:21:03;;;;;;;7.15;5.72;;;;;;;;;;1719536;83;21133;-65
2022/10/02 08:23:37;;;;;;;8.45;5.90;;;;;;;;;;1729443;82;21072;-65
2022/10/02 08:26:06;;;;;;;7.90;5.67;;;;;;;;;;1741291;82;21080;-64
2022/10/02 08:28:45;;;;;;;8.33;5.87;;;;;;;;;;1717485;83;21080;-64
2022/10/02 08:31:11;;;;;;;8.48;5.33;;;;;;;;;;1717982;83;21484;-64
2022/10/02 08:33:38;;;;;;;9.78;5.05;;;;;;;;;;1719890;82;21107;-65
2022/10/02 08:36:06;;;;;;;7.40;5.33;;;;;;;;;;1727463;82;21080;-65
2022/10/02 08:38:35;;;;;;;5.90;4.65;;;;;;;;;;1693054;83;21537;-64
2022/10/02 08:41:03;;;;;;;7.33;4.78;;;;;;;;;;1684002;84;21036;-65
2022/10/02 08:43:38;;;;;;;6.62;4.45;;;;;;;;;;1688843;84;21079;-65
2022/10/02 08:46:18;;;;;;;4.92;3.77;;;;;;;;;;1724114;82;21619;-65
2022/10/02 08:49:02;;;;;;;5.03;3.80;;;;;;;;;;1740949;82;21092;-64
2022/10/02 08:51:49;;;;;;;5.03;4.10;;;;;;;;;;1725990;82;21111;-65
2022/10/02 08:54:19;;;;;;;5.28;3.40;;;;;;;;;;1747744;82;21078;-65
2022/10/02 08:56:53;;;;;;;6.62;3.17;;;;;;;;;;1746117;82;22262;-65
2022/10/02 08:59:25;;;;;;;3.95;2.75;;;;;;;;;;1742946;82;21037;-65
2022/10/02 09:02:12;;;;;;;4.28;2.62;;;;;;;;;;1733659;82;21076;-65
2022/10/02 09:04:59;;;;;;;4.28;3.30;;;;;;;;;;1740080;82;20978;-65
2022/10/02 09:07:45;;;;;;;4.20;2.92;;;;;;;;;;1744505;82;21543;-66
2022/10/02 09:10:26;;;;;;;3.58;2.80;;;;;;;;;;1735776;82;21091;-65
2022/10/02 09:12:57;;;;;;;4.03;3.22;;;;;;;;;;1720825;82;21056;-65
2022/10/02 09:15:28;;;;;;;3.25;2.50;;;;;;;;;;1717421;82;21112;-65
2022/10/02 09:18:13;;;;;;;3.95;2.90;;;;;;;;;;1722502;82;21556;-64
2022/10/02 09:20:40;;;;;;;3.25;2.60;;;;;;;;;;1746910;81;21127;-65
2022/10/02 09:23:20;;;;;;;3.15;2.35;;;;;;;;;;1750370;82;21048;-65
2022/10/02 09:25:48;;;;;;;4.05;2.60;;;;;;;;;;1723384;83;21076;-66
2022/10/02 09:28:22;;;;;;;3.27;2.27;;;;;;;;;;1723955;82;21068;-65
2022/10/02 09:31:02;;;;;;;2.00;1.80;;;;;;;;;;1727808;82;21142;-66
2022/10/02 09:33:30;;;;;;;2.25;1.70;;;;;;;;;;1736276;82;21354;-65
2022/10/02 09:36:05;;;;;;;2.65;1.70;;;;;;;;;;1725832;81;21079;-66
2022/10/02 09:38:33;;;;;;;1.60;1.50;;;;;;;;;;1731596;82;21076;-65
2022/10/02 09:41:05;;;;;;;1.50;1.40;;;;;;;;;;1738422;82;21017;-65
2022/10/02 09:43:36;;;;;;;2.00;1.80;;;;;;;;;;1733143;82;21065;-65
2022/10/02 09:46:11;;;;;;;2.55;1.70;;;;;;;;;;1752859;81;21064;-65
2022/10/02 09:48:58;;;;;;;3.55;2.30;;;;;;;;;;1738312;81;21044;-65
2022/10/02 09:51:26;;;;;;;1.95;1.67;;;;;;;;;;1742753;82;21075;-64
2022/10/02 09:53:55;;;;;;;2.62;1.77;;;;;;;;;;1729716;82;21142;-65
2022/10/02 09:56:39;;;;;;;2.40;1.60;;;;;;;;;;1737251;82;21067;-65
2022/10/02 09:59:07;;;;;;;2.00;1.75;;;;;;;;;;1753457;82;21084;-65
2022/10/02 10:01:36;;;;;;;2.37;2.00;;;;;;;;;;1753588;82;21078;-65
2022/10/02 10:04:11;;;;;;;3.00;2.30;;;;;;;;;;1753287;82;22190;-65
2022/10/02 10:06:42;;;;;;;3.72;2.60;;;;;;;;;;1728575;82;21198;-64
2022/10/02 10:09:22;;;;;;;3.85;2.65;;;;;;;;;;1739090;82;21044;-65
2022/10/02 10:11:56;;;;;;;3.20;2.25;;;;;;;;;;1725103;82;21053;-65
2022/10/02 10:14:42;;;;;;;2.50;2.20;;;;;;;;;;1741122;82;21044;-65
2022/10/02 10:17:10;;;;;;;3.42;2.15;;;;;;;;;;1748728;82;21056;-64
2022/10/02 10:19:44;;;;;;;2.75;1.90;;;;;;;;;;1738537;82;21087;-64
2022/10/02 10:22:26;;;;;;;2.70;2.30;;;;;;;;;;1753366;82;21112;-65
2022/10/02 10:24:54;;;;;;;3.83;2.17;;;;;;;;;;1752003;82;21068;-65
2022/10/02 10:27:41;;;;;;;2.62;2.02;;;;;;;;;;1752819;82;21056;-65
2022/10/02 10:30:20;;;;;;;4.00;1.45;;;;;;;;;;1725175;82;22198;-65
2022/10/02 10:32:48;;;;;;;1.82;1.20;;;;;;;;;;1723648;83;21072;-65
2022/10/02 10:35:16;;;;;;;1.32;1.22;;;;;;;;;;1729412;82;21057;-65
2022/10/02 10:40:51;;;;;;;2.75;1.30;;;;;;;;;;1725023;82;21075;-66
2022/10/02 10:43:25;;;;;;;1.62;1.25;;;;;;;;;;1735737;82;21052;-65
2022/10/02 10:45:53;;;;;;;2.65;1.90;;;;;;;;;;1742711;82;21044;-66
2022/10/02 10:48:30;;;;;;;2.75;1.90;;;;;;;;;;1728579;81;21016;-65
2022/10/02 10:50:59;;;;;;;1.90;1.32;;;;;;;;;;1734947;81;21048;-64
2022/10/02 10:53:27;;;;;;;2.02;1.55;;;;;;;;;;1747544;81;21013;-64
2022/10/02 10:55:58;;;;;;;1.40;1.30;;;;;;;;;;1747684;82;21024;-65
2022/10/02 10:58:31;;;;;;;1.50;1.40;;;;;;;;;;1751669;82;21431;-65
2022/10/02 11:01:02;;;;;;;1.12;1.12;;;;;;;;;;1727852;80;21057;-64
2022/10/02 11:03:49;;;;;;;1.07;1.07;;;;;;;;;;1737571;82;21148;-64
2022/10/02 11:06:19;;;;;;;1.30;1.20;;;;;;;;;;1734682;81;21597;-65
2022/10/02 11:08:47;;;;;;;1.40;1.30;;;;;;;;;;1743126;82;21025;-64
2022/10/02 11:11:22;;;;;;;2.83;1.32;;;;;;;;;;1726379;82;21037;-66
2022/10/02 11:13:47;;;;;;;;;;;;;;;;;;1740133;82;21088;-65
2022/10/02 11:16:18;;;;;;;2.35;1.30;;;;;;;;;;1738016;82;20170;-65
2022/10/02 11:18:49;;;;;;;1.62;1.50;;;;;;;;;;1731438;82;21094;-65
2022/10/02 11:21:24;;;;;;;1.47;1.32;;;;;;;;;;1726530;83;21572;-66
2022/10/02 11:24:08;;;;;;;1.57;1.30;;;;;;;;;;1740842;81;21079;-66
2022/10/02 11:26:38;;;;;;;2.65;1.30;;;;;;;;;;1757595;81;21036;-64
2022/10/02 11:29:14;;;;;;;2.87;1.70;;;;;;;;;;1687686;83;21111;-65
2022/10/02 11:31:49;;;;;;;1.52;1.30;;;;;;;;;;1698163;84;21147;-65
2022/10/02 11:34:36;;;;;;;1.47;1.35;;;;;;;;;;1734568;81;21032;-65
2022/10/02 11:37:23;;;;;;;1.32;1.20;;;;;;;;;;1755526;81;21603;-65
2022/10/02 11:39:49;;;;;;;1.50;1.37;;;;;;;;;;1747394;81;21492;-65
2022/10/02 11:42:34;;;;;;;2.08;1.45;;;;;;;;;;1754806;81;21052;-66
2022/10/02 11:45:03;;;;;;;2.67;1.22;;;;;;;;;;1754292;81;21060;-65
2022/10/02 11:47:46;;;;;;;1.85;1.60;;;;;;;;;;1736552;81;21531;-65
2022/10/02 11:50:32;;;;;;;1.40;1.30;;;;;;;;;;1752012;81;21039;-65
2022/10/02 11:53:04;;;;;;;1.90;1.65;;;;;;;;;;1729367;81;21020;-65
2022/10/02 11:55:49;;;;;;;2.58;1.40;;;;;;;;;;1717413;83;21110;-66
2022/10/02 11:58:40;;;;;;;2.25;1.30;;;;;;;;;;1739108;81;21064;-65
2022/10/02 12:01:07;;;;;;;1.40;1.25;;;;;;;;;;1748086;81;21092;-65
2022/10/02 12:03:44;;;;;;;1.90;1.50;;;;;;;;;;1739352;81;21071;-65
2022/10/02 12:06:21;;;;;;;1.72;1.30;;;;;;;;;;1734173;81;21048;-66
2022/10/02 12:08:49;;;;;;;1.27;1.17;;;;;;;;;;1732446;81;21044;-65
2022/10/02 12:11:20;;;;;;;1.50;1.40;;;;;;;;;;1733331;81;21089;-65
2022/10/02 12:13:58;;;;;;;1.50;1.40;;;;;;;;;;1738610;81;21036;-65
2022/10/02 12:16:24;;;;;;;1.62;1.40;;;;;;;;;;1723796;83;21066;-65
2022/10/02 12:19:01;;;;;;;1.37;1.27;;;;;;;;;;1717938;83;21063;-65
2022/10/02 12:27:09;;;;;;;1.20;1.10;;;;;;;;;;1709558;84;21100;-65
2022/10/02 12:29:53;;;;;;;0.93;0.93;;;;;;;;;;1724836;82;21030;-64
2022/10/02 12:32:25;;;;;;;1.25;1.12;;;;;;;;;;1733216;82;21029;-64
2022/10/02 12:34:59;;;;;;;1.17;1.07;;;;;;;;;;1717272;82;21021;-65
2022/10/02 12:37:30;;;;;;;1.42;1.32;;;;;;;;;;1738562;82;21540;-64
2022/10/02 12:40:15;;;;;;;1.32;1.20;;;;;;;;;;1733523;82;21037;-64
2022/10/02 12:42:43;;;;;;;1.20;1.10;;;;;;;;;;1733572;81;21536;-65
2022/10/02 12:45:27;;;;;;;2.20;1.05;;;;;;;;;;1720148;82;21025;-65
2022/10/02 12:47:59;;;;;;;1.00;1.00;;;;;;;;;;1728459;82;21009;-64
2022/10/02 12:50:39;;;;;;;2.80;1.17;;;;;;;;;;1718832;82;21033;-65
2022/10/02 12:53:07;;;;;;;3.33;1.32;;;;;;;;;;1738281;82;21034;-65
2022/10/02 12:55:51;;;;;;;3.27;1.10;;;;;;;;;;1645070;84;21068;-65
2022/10/02 12:58:23;;;;;;;1.20;1.10;;;;;;;;;;1688211;84;21052;-65
2022/10/02 13:00:51;;;;;;;1.20;1.10;;;;;;;;;;1710002;84;21048;-65
2022/10/02 13:03:19;;;;;;;1.95;1.17;;;;;;;;;;1711886;82;21619;-65
2022/10/02 13:05:47;;;;;;;1.42;1.10;;;;;;;;;;1712052;82;21501;-64
2022/10/02 13:08:18;;;;;;;1.98;1.05;;;;;;;;;;1732038;82;21553;-64
2022/10/02 13:11:01;;;;;;;1.32;1.02;;;;;;;;;;1738613;82;21069;-64
2022/10/02 13:13:46;;;;;;;1.00;1.00;;;;;;;;;;1719677;81;22105;-64
2022/10/02 13:16:27;;;;;;;1.07;1.00;;;;;;;;;;1719933;82;21072;-64
2022/10/02 13:19:00;;;;;;;1.60;1.30;;;;;;;;;;1717834;82;21100;-67
2022/10/02 13:21:36;;;;;;;1.22;1.12;;;;;;;;;;1735513;82;21105;-68
2022/10/02 13:24:07;;;;;;;1.52;1.12;;;;;;;;;;1737348;82;21045;-64
2022/10/02 13:26:50;;;;;;;1.27;1.10;;;;;;;;;;1725434;82;21072;-65
2022/10/02 13:29:21;;;;;;;1.27;1.17;;;;;;;;;;1709738;84;21033;-65
2022/10/02 13:31:55;;;;;;;2.15;1.10;;;;;;;;;;1718846;82;21037;-65
2022/10/02 13:37:01;;;;;;;1.00;1.00;;;;;;;;;;1804014;79;22253;-65
2022/10/02 13:39:32;;;;;;;1.67;1.57;;;;;;;;;;1769707;80;21025;-65
2022/10/02 13:42:00;;;;;;;1.75;1.15;;;;;;;;;;1755538;81;21031;-65
2022/10/02 13:44:45;;;;;;;1.20;1.10;;;;;;;;;;1755459;82;21068;-64
2022/10/02 13:47:22;;;;;;;1.20;1.00;;;;;;;;;;1791907;79;21600;-64
2022/10/02 13:50:06;;;;;;;1.02;1.00;;;;;;;;;;1779730;80;21000;-64
2022/10/02 13:52:34;;;;;;;2.00;1.17;;;;;;;;;;1758013;81;21041;-66
2022/10/02 13:55:19;;;;;;;2.87;1.15;;;;;;;;;;1770671;80;21083;-64
2022/10/02 13:57:56;;;;;;;1.50;1.12;;;;;;;;;;1789262;80;21048;-65
2022/10/02 14:00:27;;;;;;;1.07;0.98;;;;;;;;;;1789280;80;21036;-65
2022/10/02 14:03:01;;;;;;;1.35;1.07;;;;;;;;;;1791506;80;21623;-65
2022/10/02 14:05:29;;;;;;;0.95;0.95;;;;;;;;;;1783053;80;21036;-64
2022/10/02 14:08:00;;;;;;;1.50;1.20;;;;;;;;;;1780820;80;21038;-64
2022/10/02 14:10:31;;;;;;;1.25;0.98;;;;;;;;;;1767548;80;21082;-65
2022/10/02 14:13:08;;;;;;;1.98;1.75;;;;;;;;;;1771860;80;21138;-65
2022/10/02 14:15:52;;;;;;;3.87;2.12;;;;;;;;;;1787589;80;20972;-65
2022/10/02 14:18:25;;;;;;;3.00;1.90;;;;;;;;;;1760833;80;21079;-65
2022/10/02 14:20:53;;;;;;;3.62;2.05;;;;;;;;;;1722315;81;21070;-65
2022/10/02 14:23:38;;;;;;;2.45;1.62;;;;;;;;;;1765132;80;21028;-64
2022/10/02 14:26:07;;;;;;;1.40;0.93;;;;;;;;;;1775930;80;21062;-64
2022/10/02 14:28:46;;;;;;;0.90;0.90;;;;;;;;;;1760521;80;21551;-65
2022/10/02 14:31:14;;;;;;;0.80;0.80;;;;;;;;;;1787147;80;22238;-64
2022/10/02 14:33:51;;;;;;;1.10;1.00;;;;;;;;;;1784952;80;21015;-64
2022/10/02 14:36:23;;;;;;;1.52;0.95;;;;;;;;;;1760249;80;21048;-65
2022/10/02 14:39:01;;;;;;;0.67;0.67;;;;;;;;;;1768484;81;21031;-66
2022/10/02 14:41:42;;;;;;;2.00;0.82;;;;;;;;;;1758721;81;21029;-65
2022/10/02 14:44:27;;;;;;;1.77;0.95;;;;;;;;;;1768067;80;20989;-65
2022/10/02 14:47:01;;;;;;;1.12;0.80;;;;;;;;;;1770948;81;21076;-65
2022/10/02 14:49:39;;;;;;;1.10;1.00;;;;;;;;;;1759701;81;21012;-65
2022/10/02 14:52:13;;;;;;;1.17;0.85;;;;;;;;;;1745528;81;21072;-66
2022/10/02 14:54:47;;;;;;;1.45;1.05;;;;;;;;;;1766592;81;21048;-65
2022/10/02 14:57:22;;;;;;;1.10;1.00;;;;;;;;;;1745098;82;22311;-65
2022/10/02 14:59:49;;;;;;;1.15;1.05;;;;;;;;;;1745003;81;21035;-64
2022/10/02 15:02:34;;;;;;;3.45;0.90;;;;;;;;;;1770144;81;21091;-65
2022/10/02 15:05:11;;;;;;;5.80;4.00;;;;;;;;;;1756099;81;21011;-66
2022/10/02 15:07:37;;;;;;;3.02;1.92;;;;;;;;;;1757964;81;21041;-65
2022/10/02 15:10:06;;;;;;;2.33;2.00;;;;;;;;;;1770801;81;20993;-64
2022/10/02 15:12:42;;;;;;;1.62;1.37;;;;;;;;;;1745847;81;21024;-65
2022/10/02 15:15:16;;;;;;;1.17;1.07;;;;;;;;;;1763409;81;21546;-65
2022/10/02 15:17:54;;;;;;;1.95;1.30;;;;;;;;;;1755716;81;21047;-65
2022/10/02 15:20:39;;;;;;;1.40;1.15;;;;;;;;;;1770197;81;21013;-65
2022/10/02 15:23:07;;;;;;;3.77;1.40;;;;;;;;;;1751093;80;21555;-65
2022/10/02 15:25:54;;;;;;;1.55;1.10;;;;;;;;;;1756145;81;21038;-65
2022/10/02 15:28:22;;;;;;;1.25;1.20;;;;;;;;;;1757224;81;21515;-65
2022/10/02 15:30:51;;;;;;;1.20;1.10;;;;;;;;;;1758220;81;21041;-65
2022/10/02 15:33:19;;;;;;;1.35;1.25;;;;;;;;;;1764649;81;21020;-65
2022/10/02 15:36:05;;;;;;;1.50;1.40;;;;;;;;;;1773148;80;21571;-64
2022/10/02 15:38:44;;;;;;;1.20;1.10;;;;;;;;;;1781320;80;21059;-64